Time;durP1;ratioP1;P1;durP2;ratioP2;P2;SDS_P1;SDS_P2;PMS_P1;PMS_P2;Temp;Humidity;BMP_temperature;BMP_pressure;BME280_temperature;BME280_humidity;BME280_pressure;Samples;Min_cycle;Max_cycle;Signal;HPM_P1;HPM_P2
2022/07/08 00:00:17;;;;;;;0.30;0.30;;;19.30;99.90;;;;;;5011714;28;20272;-63
2022/07/08 00:02:44;;;;;;;0.45;0.45;;;19.20;99.90;;;;;;5013830;28;20209;-64
2022/07/08 00:05:11;;;;;;;0.38;0.38;;;19.10;99.90;;;;;;5011865;28;20262;-64
2022/07/08 00:07:38;;;;;;;0.60;0.60;;;19.10;99.90;;;;;;5011800;28;20279;-64
2022/07/08 00:10:06;;;;;;;0.47;0.47;;;19.10;99.90;;;;;;5012681;28;20327;-64
2022/07/08 00:12:33;;;;;;;0.75;0.75;;;19.10;99.90;;;;;;5011295;28;20253;-63
2022/07/08 00:15:00;;;;;;;0.60;0.60;;;19.10;99.90;;;;;;5011589;28;20777;-65
2022/07/08 00:17:28;;;;;;;0.40;0.40;;;19.00;99.90;;;;;;5011572;28;20235;-62
2022/07/08 00:19:55;;;;;;;0.50;0.50;;;18.90;99.90;;;;;;5010555;28;20271;-64
2022/07/08 00:22:22;;;;;;;0.30;0.30;;;19.00;99.90;;;;;;5011137;28;20253;-63
2022/07/08 00:24:49;;;;;;;0.50;0.50;;;18.90;99.90;;;;;;5012331;28;20583;-63
2022/07/08 00:27:15;;;;;;;0.60;0.60;;;18.90;99.90;;;;;;5013105;28;20316;-63
2022/07/08 00:29:42;;;;;;;0.50;0.50;;;18.90;99.90;;;;;;5012486;28;20319;-65
2022/07/08 00:32:09;;;;;;;0.40;0.40;;;18.90;99.90;;;;;;5012542;28;20209;-63
2022/07/08 00:34:37;;;;;;;0.70;0.70;;;18.90;99.90;;;;;;5011359;28;20205;-65
2022/07/08 00:37:06;;;;;;;0.60;0.60;;;18.80;99.90;;;;;;5011134;28;20319;-65
2022/07/08 00:39:33;;;;;;;0.50;0.50;;;18.70;99.90;;;;;;5010228;28;20198;-65
2022/07/08 00:42:01;;;;;;;0.60;0.60;;;18.70;99.90;;;;;;5011267;28;20237;-63
2022/07/08 00:44:28;;;;;;;0.60;0.60;;;18.60;99.90;;;;;;5005241;28;20205;-63
2022/07/08 00:46:54;;;;;;;0.47;0.40;;;18.60;99.90;;;;;;5010878;28;20316;-64
2022/07/08 00:49:22;;;;;;;0.65;0.40;;;18.50;99.90;;;;;;5010537;28;20607;-64
2022/07/08 00:51:50;;;;;;;0.60;0.60;;;18.50;99.90;;;;;;5010469;28;20292;-64
2022/07/08 00:54:20;;;;;;;0.77;0.77;;;18.40;99.90;;;;;;5011132;28;20600;-63
2022/07/08 00:56:47;;;;;;;0.60;0.60;;;18.30;99.90;;;;;;5010966;28;20229;-64
2022/07/08 00:59:14;;;;;;;0.90;0.90;;;18.20;99.90;;;;;;5010724;28;20205;-63
2022/07/08 01:01:41;;;;;;;0.80;0.80;;;18.10;99.90;;;;;;5013821;28;20205;-64
2022/07/08 01:04:08;;;;;;;1.63;1.20;;;18.20;99.90;;;;;;5018620;28;20311;-65
2022/07/08 01:06:35;;;;;;;4.65;1.52;;;18.00;99.90;;;;;;5011301;28;20279;-64
2022/07/08 01:09:06;;;;;;;1.33;1.13;;;18.00;99.90;;;;;;5010707;28;20243;-63
2022/07/08 01:11:33;;;;;;;1.30;1.20;;;18.00;99.90;;;;;;5010947;28;20225;-64
2022/07/08 01:14:00;;;;;;;1.73;1.30;;;18.00;99.90;;;;;;5013862;28;20233;-64
2022/07/08 01:16:26;;;;;;;1.60;1.20;;;18.00;99.90;;;;;;5016152;28;20236;-62
2022/07/08 01:18:53;;;;;;;1.80;1.20;;;17.90;99.90;;;;;;5015742;28;20235;-62
2022/07/08 01:21:21;;;;;;;1.20;1.20;;;18.00;99.90;;;;;;5013389;28;20670;-63
2022/07/08 01:23:48;;;;;;;1.05;1.05;;;17.90;99.90;;;;;;5011164;28;20749;-63
2022/07/08 01:26:16;;;;;;;1.17;1.08;;;18.00;99.90;;;;;;5010431;28;20320;-63
2022/07/08 01:28:43;;;;;;;0.97;0.97;;;18.00;99.90;;;;;;5010084;28;20236;-63
2022/07/08 01:31:11;;;;;;;1.00;1.00;;;17.90;99.90;;;;;;5011300;28;20232;-64
2022/07/08 01:33:38;;;;;;;1.00;0.93;;;17.90;99.90;;;;;;5016364;28;20253;-65
2022/07/08 01:36:06;;;;;;;1.20;1.10;;;17.90;99.90;;;;;;5016990;28;20229;-62
2022/07/08 01:38:34;;;;;;;1.05;1.02;;;17.90;99.90;;;;;;5013817;28;20216;-63
2022/07/08 01:41:01;;;;;;;1.10;0.97;;;17.90;99.90;;;;;;5010708;28;20300;-64
2022/07/08 01:43:28;;;;;;;0.90;0.90;;;17.80;99.90;;;;;;5013199;28;20283;-63
2022/07/08 01:45:55;;;;;;;1.00;1.00;;;17.80;99.90;;;;;;5014885;28;20225;-64
2022/07/08 01:48:22;;;;;;;1.67;1.00;;;17.80;99.90;;;;;;5009957;28;20210;-63
2022/07/08 01:50:49;;;;;;;1.10;1.10;;;17.70;99.90;;;;;;5013958;28;20225;-62
2022/07/08 01:53:16;;;;;;;1.27;1.13;;;17.70;99.90;;;;;;5013918;28;20201;-62
2022/07/08 01:55:45;;;;;;;1.20;1.10;;;17.70;99.90;;;;;;5014291;28;20316;-64
2022/07/08 01:58:12;;;;;;;2.42;1.77;;;17.70;99.90;;;;;;5013208;28;20202;-64
2022/07/08 02:00:39;;;;;;;1.10;1.10;;;17.70;99.90;;;;;;5013815;28;20206;-64
2022/07/08 02:03:06;;;;;;;1.02;1.02;;;17.70;99.90;;;;;;5013395;28;20288;-63
2022/07/08 02:05:34;;;;;;;1.37;1.10;;;17.60;99.90;;;;;;5013982;28;20308;-64
2022/07/08 02:08:03;;;;;;;0.90;0.90;;;17.60;99.90;;;;;;5013766;28;20225;-64
2022/07/08 02:12:18;;;;;;;1.30;1.20;;;17.60;99.90;;;;;;5005658;28;20221;-65
2022/07/08 02:13:17;;;;;;;1.20;1.10;;;17.60;99.90;;;;;;5012816;28;20212;-62
2022/07/08 02:15:44;;;;;;;1.00;1.00;;;17.60;99.90;;;;;;5013539;28;20252;-64
2022/07/08 02:18:11;;;;;;;5.28;1.40;;;17.50;99.90;;;;;;5012453;28;20299;-65
2022/07/08 02:20:39;;;;;;;1.23;1.20;;;17.50;99.90;;;;;;5013689;28;20664;-64
2022/07/08 02:23:06;;;;;;;1.27;1.10;;;17.50;99.90;;;;;;5013658;28;20205;-65
2022/07/08 02:25:32;;;;;;;1.25;1.17;;;17.50;99.90;;;;;;5013155;28;20236;-63
2022/07/08 02:27:59;;;;;;;1.00;1.00;;;17.50;99.90;;;;;;5013553;28;20206;-63
2022/07/08 02:30:27;;;;;;;1.30;1.20;;;17.40;99.90;;;;;;5012606;28;20232;-64
2022/07/08 02:32:54;;;;;;;1.45;1.20;;;17.40;99.90;;;;;;5014506;28;20817;-63
2022/07/08 02:35:21;;;;;;;1.15;1.13;;;17.40;99.90;;;;;;5025377;28;20556;-64
2022/07/08 02:37:48;;;;;;;1.10;1.10;;;17.30;99.90;;;;;;5021621;28;20244;-64
2022/07/08 02:40:15;;;;;;;1.27;1.27;;;17.30;99.90;;;;;;5015391;28;20295;-63
2022/07/08 02:42:42;;;;;;;2.03;1.20;;;17.30;99.90;;;;;;5019493;28;20237;-65
2022/07/08 02:45:09;;;;;;;1.17;1.17;;;17.30;99.90;;;;;;5020938;28;20240;-63
2022/07/08 02:47:37;;;;;;;1.30;1.30;;;17.20;99.90;;;;;;5023367;28;20296;-63
2022/07/08 02:50:05;;;;;;;1.67;1.13;;;17.20;99.90;;;;;;5021583;28;20273;-64
2022/07/08 02:52:32;;;;;;;1.40;1.30;;;17.20;99.90;;;;;;5021674;28;20201;-64
2022/07/08 02:54:59;;;;;;;1.25;1.25;;;17.10;99.90;;;;;;5014416;28;20305;-64
2022/07/08 02:57:26;;;;;;;1.10;1.10;;;17.10;99.90;;;;;;5012562;28;20711;-64
2022/07/08 02:59:53;;;;;;;1.35;1.27;;;17.00;99.90;;;;;;5012078;28;20627;-63
2022/07/08 03:02:20;;;;;;;1.20;1.20;;;17.00;99.90;;;;;;5012695;28;20679;-63
2022/07/08 03:04:48;;;;;;;1.17;1.17;;;16.90;99.90;;;;;;5012824;28;20244;-63
2022/07/08 03:07:15;;;;;;;1.02;1.02;;;16.90;99.90;;;;;;5012887;28;20233;-63
2022/07/08 03:09:42;;;;;;;1.58;1.48;;;16.80;99.90;;;;;;5012016;28;20356;-63
2022/07/08 03:12:09;;;;;;;1.00;1.00;;;16.80;99.90;;;;;;5012069;28;20398;-63
2022/07/08 03:14:36;;;;;;;1.50;1.40;;;16.70;99.90;;;;;;5012741;28;20213;-63
2022/07/08 03:17:03;;;;;;;1.17;1.17;;;16.60;99.90;;;;;;5012582;28;20244;-64
2022/07/08 03:19:30;;;;;;;1.35;1.25;;;16.70;99.90;;;;;;5012085;28;20615;-64
2022/07/08 03:21:59;;;;;;;1.50;1.40;;;16.60;99.90;;;;;;5012094;28;20686;-63
2022/07/08 03:24:25;;;;;;;1.45;1.35;;;16.60;99.90;;;;;;5012701;28;20634;-63
2022/07/08 03:26:52;;;;;;;1.03;1.03;;;16.50;99.90;;;;;;5012226;28;20244;-63
2022/07/08 03:29:19;;;;;;;1.23;1.13;;;16.50;99.90;;;;;;5011731;28;20206;-62
2022/07/08 03:31:46;;;;;;;1.03;1.03;;;16.60;99.90;;;;;;5013710;28;20248;-65
2022/07/08 03:34:13;;;;;;;0.93;0.93;;;16.60;99.90;;;;;;5014211;28;20206;-64
2022/07/08 03:36:40;;;;;;;1.23;1.13;;;16.60;99.90;;;;;;5014555;28;20264;-65
2022/07/08 03:39:08;;;;;;;1.33;1.23;;;16.60;99.90;;;;;;5013409;28;20209;-63
2022/07/08 03:41:34;;;;;;;1.20;1.10;;;16.50;99.90;;;;;;5012388;28;20203;-63
2022/07/08 03:44:01;;;;;;;1.10;1.10;;;16.40;99.90;;;;;;5012301;28;20632;-62
2022/07/08 03:46:30;;;;;;;1.23;1.10;;;16.40;99.90;;;;;;5014675;28;20289;-64
2022/07/08 03:48:57;;;;;;;1.20;1.20;;;16.30;99.90;;;;;;5007795;28;20570;-64
2022/07/08 03:51:24;;;;;;;1.10;1.10;;;16.20;99.90;;;;;;5011520;28;20312;-63
2022/07/08 03:53:51;;;;;;;1.08;1.08;;;16.10;99.90;;;;;;5011579;28;20212;-64
2022/07/08 03:56:20;;;;;;;0.90;0.90;;;16.00;99.90;;;;;;5011206;28;20248;-62
2022/07/08 03:58:47;;;;;;;1.27;1.17;;;16.00;99.90;;;;;;5011071;28;20297;-62
2022/07/08 04:01:13;;;;;;;1.20;1.10;;;15.90;99.90;;;;;;5011769;28;20197;-62
2022/07/08 04:03:40;;;;;;;1.30;1.20;;;15.90;99.90;;;;;;5011794;28;20236;-64
2022/07/08 04:06:07;;;;;;;0.90;0.90;;;15.80;99.90;;;;;;5011263;28;20271;-62
2022/07/08 04:08:35;;;;;;;1.10;1.10;;;15.80;99.90;;;;;;5011065;28;20256;-64
2022/07/08 04:11:02;;;;;;;2.10;1.20;;;15.70;99.90;;;;;;5011496;28;20308;-64
2022/07/08 04:13:30;;;;;;;1.20;1.20;;;15.70;99.90;;;;;;5003835;28;20209;-64
2022/07/08 04:15:57;;;;;;;1.13;1.13;;;15.70;99.90;;;;;;5011846;28;20711;-64
2022/07/08 04:18:25;;;;;;;1.10;1.10;;;15.60;99.90;;;;;;5012770;28;20212;-62
2022/07/08 04:20:52;;;;;;;1.00;1.00;;;15.50;99.90;;;;;;5016528;28;20208;-64
2022/07/08 04:23:19;;;;;;;2.78;1.10;;;15.50;99.90;;;;;;5015860;28;20269;-63
2022/07/08 04:25:46;;;;;;;1.30;1.20;;;15.40;99.90;;;;;;5026198;28;20304;-62
2022/07/08 04:28:13;;;;;;;1.67;1.00;;;15.30;99.90;;;;;;5023355;28;20240;-64
2022/07/08 04:30:41;;;;;;;1.20;1.20;;;15.30;99.90;;;;;;5014519;28;22187;-62
2022/07/08 04:33:08;;;;;;;1.33;1.23;;;15.30;99.90;;;;;;5011756;28;20241;-62
2022/07/08 04:35:36;;;;;;;1.27;1.20;;;15.30;99.90;;;;;;5011200;28;20652;-64
2022/07/08 04:38:03;;;;;;;1.00;1.00;;;15.40;99.90;;;;;;5011483;28;20209;-62
2022/07/08 04:40:30;;;;;;;1.42;1.20;;;15.40;99.90;;;;;;5010886;28;20292;-62
2022/07/08 04:42:57;;;;;;;1.40;1.30;;;15.30;99.90;;;;;;5010911;28;20292;-64
2022/07/08 04:45:24;;;;;;;1.23;1.13;;;15.30;99.90;;;;;;5010996;28;20296;-63
2022/07/08 04:47:53;;;;;;;1.00;1.00;;;15.20;99.90;;;;;;5010631;28;20304;-63
2022/07/08 04:50:20;;;;;;;1.25;1.15;;;15.30;99.90;;;;;;5010747;28;20213;-63
2022/07/08 04:52:48;;;;;;;1.02;1.02;;;15.20;99.90;;;;;;5009361;28;20231;-65
2022/07/08 04:55:28;;;;;;;1.00;1.00;;;15.30;99.90;;;;;;5011831;28;20205;-63
2022/07/08 04:57:56;;;;;;;1.07;1.07;;;15.40;99.90;;;;;;5011092;28;20208;-63
2022/07/08 05:00:23;;;;;;;1.00;1.00;;;15.40;99.90;;;;;;5010406;28;20213;-62
2022/07/08 05:02:50;;;;;;;1.10;1.10;;;15.40;99.90;;;;;;5011486;28;20198;-63
2022/07/08 05:05:18;;;;;;;1.27;1.17;;;15.40;99.90;;;;;;5011334;28;20209;-64
2022/07/08 05:07:45;;;;;;;1.50;1.40;;;15.50;99.90;;;;;;4999209;28;20217;-63
2022/07/08 05:10:12;;;;;;;1.15;1.15;;;15.50;99.90;;;;;;5003931;28;20212;-62
2022/07/08 05:12:39;;;;;;;1.50;1.40;;;15.40;99.90;;;;;;4999150;28;20229;-62
2022/07/08 05:15:07;;;;;;;1.17;1.08;;;15.50;99.90;;;;;;5010381;28;20565;-62
2022/07/08 05:17:34;;;;;;;1.20;1.20;;;15.60;99.90;;;;;;4993141;28;21399;-63
2022/07/08 05:20:01;;;;;;;2.10;1.48;;;15.70;99.90;;;;;;5002901;28;20332;-63
2022/07/08 05:22:29;;;;;;;2.20;1.50;;;15.90;99.90;;;;;;5002156;28;20194;-62
2022/07/08 05:24:56;;;;;;;1.95;1.60;;;16.10;99.90;;;;;;5011250;28;20389;-63
2022/07/08 05:27:22;;;;;;;1.50;1.40;;;16.30;99.90;;;;;;5010096;28;20359;-62
2022/07/08 05:29:49;;;;;;;1.50;1.40;;;16.50;99.90;;;;;;5010433;28;20201;-62
2022/07/08 05:32:16;;;;;;;1.47;1.37;;;16.60;99.90;;;;;;5011652;28;20254;-61
2022/07/08 05:34:44;;;;;;;1.30;1.20;;;16.90;99.90;;;;;;5003925;28;20284;-63
2022/07/08 05:37:11;;;;;;;1.30;1.20;;;17.10;99.90;;;;;;5008452;28;20264;-61
2022/07/08 05:39:39;;;;;;;1.40;1.30;;;17.30;99.90;;;;;;5009850;28;20209;-63
2022/07/08 05:42:07;;;;;;;1.33;1.23;;;17.40;99.90;;;;;;5000268;28;20228;-64
2022/07/08 05:44:34;;;;;;;1.40;1.30;;;17.60;99.90;;;;;;5017667;28;20292;-63
2022/07/08 05:47:01;;;;;;;1.00;1.00;;;17.70;99.90;;;;;;5009344;28;20335;-63
2022/07/08 05:49:27;;;;;;;1.10;1.10;;;17.90;99.90;;;;;;5011064;28;20201;-64
2022/07/08 05:51:54;;;;;;;0.97;0.97;;;18.00;99.90;;;;;;5011796;28;20214;-63
2022/07/08 05:54:21;;;;;;;1.30;1.20;;;18.20;99.90;;;;;;5012303;28;20273;-63
2022/07/08 05:56:50;;;;;;;1.60;1.23;;;18.40;99.90;;;;;;5013131;28;20288;-64
2022/07/08 05:59:16;;;;;;;1.33;1.23;;;18.50;99.90;;;;;;5015670;28;20221;-66
2022/07/08 06:01:43;;;;;;;1.25;1.25;;;18.70;99.90;;;;;;5015755;28;20237;-64
2022/07/08 06:04:10;;;;;;;1.30;1.20;;;19.00;99.90;;;;;;5007541;28;20293;-63
2022/07/08 06:06:37;;;;;;;1.30;1.20;;;19.10;99.90;;;;;;5009807;28;20320;-64
2022/07/08 06:09:04;;;;;;;1.15;1.15;;;19.10;99.90;;;;;;5009300;28;20225;-63
2022/07/08 06:11:31;;;;;;;1.00;1.00;;;19.00;99.90;;;;;;5008722;28;20232;-62
2022/07/08 06:13:59;;;;;;;1.13;1.10;;;19.00;99.90;;;;;;5009733;28;20643;-63
2022/07/08 06:16:26;;;;;;;2.00;1.38;;;19.10;99.90;;;;;;5009593;28;20226;-64
2022/07/08 06:18:53;;;;;;;1.50;1.10;;;18.70;99.90;;;;;;5011936;28;20255;-64
2022/07/08 06:21:20;;;;;;;1.10;1.10;;;18.80;99.90;;;;;;5012521;28;20201;-62
2022/07/08 06:23:47;;;;;;;1.08;1.00;;;19.10;99.90;;;;;;5012686;28;20775;-63
2022/07/08 06:26:14;;;;;;;1.27;1.17;;;19.20;99.90;;;;;;5012305;28;20256;-63
2022/07/08 06:28:41;;;;;;;0.90;0.90;;;19.30;99.90;;;;;;5009296;28;20207;-62
2022/07/08 06:31:09;;;;;;;1.27;1.20;;;19.40;99.90;;;;;;5011723;28;20232;-64
2022/07/08 06:33:36;;;;;;;1.20;1.02;;;19.30;99.90;;;;;;5010624;28;20209;-65
2022/07/08 06:36:03;;;;;;;1.27;1.17;;;19.20;99.90;;;;;;5008616;28;20791;-65
2022/07/08 06:38:30;;;;;;;0.93;0.93;;;19.10;99.90;;;;;;5010284;28;20206;-62
2022/07/08 06:40:57;;;;;;;1.20;1.10;;;19.00;99.90;;;;;;5010054;28;20601;-63
2022/07/08 06:43:24;;;;;;;1.27;1.17;;;19.20;99.90;;;;;;5012053;28;20730;-63
2022/07/08 06:45:50;;;;;;;1.30;1.20;;;19.50;99.90;;;;;;5011400;28;20217;-63
2022/07/08 06:48:19;;;;;;;1.60;1.50;;;19.40;99.90;;;;;;5011834;28;20212;-63
2022/07/08 06:50:46;;;;;;;1.40;1.30;;;19.10;99.90;;;;;;5012407;28;20225;-63
2022/07/08 06:53:12;;;;;;;0.80;0.80;;;19.20;99.90;;;;;;5013292;28;20311;-63
2022/07/08 06:55:40;;;;;;;1.23;1.20;;;19.30;99.90;;;;;;5013113;28;20225;-63
2022/07/08 06:58:06;;;;;;;1.30;1.20;;;19.10;99.90;;;;;;5002573;28;20212;-63
2022/07/08 07:00:33;;;;;;;1.50;1.40;;;19.00;99.90;;;;;;5001078;28;20676;-63
2022/07/08 07:03:00;;;;;;;1.40;1.30;;;19.20;99.90;;;;;;5005090;28;20788;-64
2022/07/08 07:05:28;;;;;;;2.70;1.17;;;19.30;99.90;;;;;;5012219;28;20241;-63
2022/07/08 07:07:55;;;;;;;1.30;1.20;;;19.50;99.90;;;;;;5012617;28;20750;-62
2022/07/08 07:10:22;;;;;;;1.13;1.13;;;19.30;99.90;;;;;;5010223;28;20205;-62
2022/07/08 07:12:49;;;;;;;1.30;1.20;;;19.40;99.90;;;;;;5009490;28;20231;-62
2022/07/08 07:15:16;;;;;;;1.10;1.10;;;19.60;99.90;;;;;;5011944;28;20198;-63
2022/07/08 07:17:43;;;;;;;1.63;1.52;;;19.70;99.90;;;;;;5012487;28;20324;-62
2022/07/08 07:20:11;;;;;;;1.15;1.08;;;19.70;99.90;;;;;;5009486;28;20206;-63
2022/07/08 07:22:39;;;;;;;1.40;1.30;;;19.70;99.90;;;;;;5013144;28;20205;-62
2022/07/08 07:25:07;;;;;;;1.30;1.20;;;19.60;99.90;;;;;;5012619;28;20288;-62
2022/07/08 07:27:34;;;;;;;1.50;1.40;;;19.50;99.90;;;;;;5012688;28;20367;-62
2022/07/08 07:30:01;;;;;;;1.20;1.20;;;19.50;99.90;;;;;;5011898;28;20205;-62
2022/07/08 07:32:28;;;;;;;1.33;1.20;;;19.80;99.90;;;;;;5009189;28;20217;-62
2022/07/08 07:34:55;;;;;;;1.20;1.10;;;19.80;99.90;;;;;;5011072;28;20694;-62
2022/07/08 07:37:22;;;;;;;1.17;1.10;;;19.90;99.90;;;;;;5013921;28;20307;-62
2022/07/08 07:39:50;;;;;;;1.35;1.25;;;20.00;99.90;;;;;;5014194;28;20626;-64
2022/07/08 07:42:17;;;;;;;1.42;1.33;;;20.10;99.90;;;;;;5012991;28;20862;-62
2022/07/08 07:44:44;;;;;;;1.10;1.10;;;20.00;99.90;;;;;;5007668;28;20297;-63
2022/07/08 07:47:10;;;;;;;1.10;1.10;;;19.90;99.90;;;;;;5009397;28;20779;-63
2022/07/08 07:49:37;;;;;;;1.10;1.10;;;19.90;99.90;;;;;;5008199;28;20205;-63
2022/07/08 07:52:05;;;;;;;1.50;1.23;;;20.10;99.90;;;;;;5008857;28;20307;-63
2022/07/08 07:54:32;;;;;;;1.30;1.20;;;19.90;99.90;;;;;;5010904;28;20205;-63
2022/07/08 07:57:00;;;;;;;1.25;1.15;;;20.00;99.90;;;;;;5008453;28;20221;-63
2022/07/08 07:59:27;;;;;;;1.50;1.40;;;19.90;99.90;;;;;;5004247;28;20265;-63
2022/07/08 08:01:54;;;;;;;1.40;1.27;;;20.00;99.90;;;;;;5012354;28;20214;-63
2022/07/08 08:04:21;;;;;;;1.58;1.40;;;20.10;99.90;;;;;;5013895;28;20300;-63
2022/07/08 08:06:48;;;;;;;1.85;1.30;;;20.10;99.90;;;;;;5010507;28;20255;-64
2022/07/08 08:09:15;;;;;;;1.10;1.10;;;20.20;99.90;;;;;;5003771;28;20672;-64
2022/07/08 08:11:42;;;;;;;1.00;1.00;;;20.30;99.90;;;;;;5006492;28;20584;-66
2022/07/08 08:14:10;;;;;;;1.20;1.10;;;20.30;99.90;;;;;;5010181;28;20205;-63
2022/07/08 08:16:37;;;;;;;1.17;1.10;;;20.50;99.90;;;;;;5007249;28;20305;-62
2022/07/08 08:19:04;;;;;;;1.25;1.15;;;20.50;99.90;;;;;;5002784;28;20213;-62
2022/07/08 08:21:31;;;;;;;1.03;1.00;;;20.60;99.90;;;;;;5005503;28;20205;-63
2022/07/08 08:23:58;;;;;;;1.17;1.08;;;20.60;99.90;;;;;;5007545;28;20280;-64
2022/07/08 08:26:24;;;;;;;1.25;1.15;;;20.50;99.90;;;;;;5003440;28;20229;-64
2022/07/08 08:28:51;;;;;;;1.08;1.08;;;20.50;99.90;;;;;;5007535;28;20288;-64
2022/07/08 08:31:20;;;;;;;1.00;1.00;;;20.50;99.90;;;;;;5009456;28;20734;-62
2022/07/08 08:33:46;;;;;;;1.02;1.02;;;20.40;99.90;;;;;;5009147;28;20737;-65
2022/07/08 08:36:13;;;;;;;1.10;1.10;;;20.50;99.90;;;;;;5009490;28;20224;-63
2022/07/08 08:38:40;;;;;;;1.20;1.10;;;20.50;99.90;;;;;;5007626;28;20292;-62
2022/07/08 08:41:07;;;;;;;1.20;1.10;;;20.60;99.90;;;;;;5009673;28;20583;-63
2022/07/08 08:43:34;;;;;;;1.30;1.20;;;20.70;99.90;;;;;;5008982;28;20209;-62
2022/07/08 08:46:02;;;;;;;1.25;1.15;;;20.80;99.90;;;;;;5005763;28;20225;-63
2022/07/08 08:48:36;;;;;;;1.10;1.10;;;21.00;99.90;;;;;;5002287;28;20209;-63
2022/07/08 08:51:07;;;;;;;1.00;1.00;;;21.00;99.90;;;;;;5005635;28;20737;-62
2022/07/08 08:53:40;;;;;;;1.25;1.15;;;21.20;99.90;;;;;;5009006;28;20257;-63
2022/07/08 08:56:09;;;;;;;1.15;1.15;;;21.30;99.90;;;;;;5009027;28;20308;-64
2022/07/08 08:58:38;;;;;;;1.20;1.10;;;21.40;99.90;;;;;;5009208;28;20322;-63
2022/07/08 09:01:06;;;;;;;1.35;1.25;;;21.40;99.90;;;;;;5008903;28;20213;-63
2022/07/08 09:03:35;;;;;;;1.15;1.10;;;21.50;99.90;;;;;;5009282;28;20293;-63
2022/07/08 09:06:02;;;;;;;1.30;1.20;;;21.50;99.90;;;;;;5009426;28;20319;-63
2022/07/08 09:08:29;;;;;;;0.98;0.98;;;21.50;99.90;;;;;;5010322;28;20209;-63
2022/07/08 09:10:56;;;;;;;1.10;1.10;;;21.80;99.90;;;;;;5010103;28;20240;-63
2022/07/08 09:13:25;;;;;;;1.23;1.20;;;21.90;99.90;;;;;;5011819;28;20229;-63
2022/07/08 09:15:54;;;;;;;0.93;0.93;;;21.90;99.90;;;;;;5015052;28;20232;-63
2022/07/08 09:18:23;;;;;;;2.90;1.20;;;22.00;99.90;;;;;;5011120;28;20556;-63
2022/07/08 09:20:52;;;;;;;2.17;1.35;;;21.90;99.90;;;;;;5012902;28;20210;-63
2022/07/08 09:23:21;;;;;;;1.00;1.00;;;22.00;99.90;;;;;;5011415;28;20228;-63
2022/07/08 09:25:50;;;;;;;1.17;1.17;;;21.90;99.90;;;;;;5011228;28;20236;-63
2022/07/08 09:28:17;;;;;;;1.40;1.30;;;21.80;99.90;;;;;;5010492;28;20201;-63
2022/07/08 09:30:45;;;;;;;1.00;1.00;;;21.80;99.90;;;;;;5011426;28;20208;-64
2022/07/08 09:33:12;;;;;;;1.42;1.25;;;21.90;99.90;;;;;;5016154;28;20590;-63
2022/07/08 09:35:42;;;;;;;1.00;1.00;;;22.00;99.90;;;;;;5011440;28;20240;-63
2022/07/08 09:38:11;;;;;;;1.40;1.30;;;22.00;99.90;;;;;;5007968;28;20334;-63
2022/07/08 09:40:38;;;;;;;1.10;1.00;;;22.00;99.90;;;;;;5009413;28;20206;-63
2022/07/08 09:43:13;;;;;;;1.20;1.10;;;21.90;99.90;;;;;;5009333;28;20575;-63
2022/07/08 09:45:40;;;;;;;1.27;1.17;;;21.70;99.90;;;;;;5005881;28;20385;-63
2022/07/08 09:48:08;;;;;;;1.10;1.10;;;21.60;99.90;;;;;;5006421;28;20304;-65
2022/07/08 09:50:40;;;;;;;1.17;1.10;;;21.90;99.90;;;;;;5011106;28;20202;-63
2022/07/08 09:53:16;;;;;;;1.30;1.20;;;22.10;99.90;;;;;;5012334;28;20666;-63
2022/07/08 09:55:46;;;;;;;0.90;0.90;;;22.10;99.90;;;;;;5014795;28;20308;-63
2022/07/08 09:58:14;;;;;;;1.10;1.10;;;22.30;99.90;;;;;;5014393;28;20201;-63
2022/07/08 10:00:42;;;;;;;2.75;1.30;;;22.40;99.90;;;;;;5015245;28;20632;-64
2022/07/08 10:03:09;;;;;;;0.98;0.98;;;22.20;99.90;;;;;;5011971;28;20197;-63
2022/07/08 10:05:35;;;;;;;1.15;1.00;;;22.30;99.90;;;;;;5014952;28;20209;-63
2022/07/08 10:08:02;;;;;;;1.35;1.30;;;22.40;99.90;;;;;;5014564;28;20233;-64
2022/07/08 10:10:33;;;;;;;1.30;1.20;;;22.60;99.90;;;;;;5005735;28;20219;-63
2022/07/08 10:13:01;;;;;;;1.17;1.17;;;22.80;99.90;;;;;;5015191;28;20236;-62
2022/07/08 10:15:29;;;;;;;1.40;1.30;;;22.80;99.90;;;;;;5021204;28;20292;-63
2022/07/08 10:18:00;;;;;;;1.38;1.27;;;22.40;99.90;;;;;;5015718;28;20291;-64
2022/07/08 10:20:31;;;;;;;1.00;1.00;;;22.40;99.90;;;;;;5013596;28;20743;-63
2022/07/08 10:23:02;;;;;;;1.20;1.10;;;22.60;99.90;;;;;;5014902;28;20201;-64
2022/07/08 10:25:31;;;;;;;1.25;1.15;;;22.70;99.90;;;;;;5006130;28;20202;-64
2022/07/08 10:28:09;;;;;;;1.23;1.23;;;22.60;99.90;;;;;;5014096;28;20686;-63
2022/07/08 10:30:47;;;;;;;0.98;0.98;;;22.50;99.90;;;;;;5007233;28;20215;-63
2022/07/08 10:33:19;;;;;;;1.17;1.08;;;22.70;99.90;;;;;;5013924;28;20805;-63
2022/07/08 10:36:03;;;;;;;0.93;0.93;;;22.80;99.90;;;;;;5013787;28;20221;-64
2022/07/08 10:38:31;;;;;;;0.98;0.98;;;22.90;99.90;;;;;;5010148;28;20822;-63
2022/07/08 10:41:04;;;;;;;2.58;1.35;;;22.90;99.90;;;;;;5014000;28;20205;-63
2022/07/08 10:43:31;;;;;;;1.13;1.13;;;22.70;99.90;;;;;;5010642;28;20193;-64
2022/07/08 10:46:00;;;;;;;1.25;1.15;;;22.80;99.90;;;;;;5013891;28;20227;-64
2022/07/08 10:48:28;;;;;;;0.77;0.77;;;23.20;99.90;;;;;;5012583;28;20212;-63
2022/07/08 10:50:55;;;;;;;1.02;1.02;;;23.00;99.90;;;;;;5013695;28;20205;-63
2022/07/08 10:53:22;;;;;;;2.45;1.20;;;23.00;99.90;;;;;;5014028;28;20221;-62
2022/07/08 10:55:49;;;;;;;1.20;1.10;;;23.20;99.90;;;;;;5013706;28;20559;-62
2022/07/08 10:58:17;;;;;;;1.00;1.00;;;23.20;99.90;;;;;;5013197;28;20742;-64
2022/07/08 11:01:24;;;;;;;1.42;1.17;;;23.30;99.90;;;;;;5013899;28;20216;-63
2022/07/08 11:03:51;;;;;;;1.08;1.05;;;23.20;99.90;;;;;;5010265;28;20198;-64
2022/07/08 11:06:34;;;;;;;1.10;1.10;;;22.90;99.90;;;;;;5012775;28;20231;-64
2022/07/08 11:09:04;;;;;;;1.15;1.10;;;22.90;99.90;;;;;;5012246;28;20205;-64
2022/07/08 11:11:31;;;;;;;0.90;0.90;;;23.20;99.90;;;;;;5012248;28;20204;-64
2022/07/08 11:14:00;;;;;;;1.13;1.02;;;23.00;99.90;;;;;;5013391;28;20676;-63
2022/07/08 11:16:32;;;;;;;1.23;1.15;;;23.00;99.90;;;;;;5013041;28;20700;-64
2022/07/08 11:19:00;;;;;;;1.30;1.20;;;23.00;99.90;;;;;;5012979;28;20205;-64
2022/07/08 11:21:27;;;;;;;1.10;1.08;;;23.00;99.90;;;;;;5012918;28;20205;-63
2022/07/08 11:23:54;;;;;;;0.88;0.88;;;23.00;99.90;;;;;;5013390;28;20208;-62
2022/07/08 11:26:23;;;;;;;1.33;1.23;;;23.00;99.90;;;;;;5013611;28;20221;-65
2022/07/08 11:28:49;;;;;;;1.42;1.30;;;23.20;99.90;;;;;;5013323;28;20669;-64
2022/07/08 11:31:25;;;;;;;1.13;1.03;;;23.00;99.90;;;;;;5013158;28;20594;-64
2022/07/08 11:33:52;;;;;;;1.30;1.20;;;22.90;99.90;;;;;;5007843;28;20224;-64
2022/07/08 11:36:20;;;;;;;1.10;1.02;;;23.00;99.90;;;;;;5012784;28;20229;-65
2022/07/08 11:38:48;;;;;;;1.35;1.00;;;23.40;99.90;;;;;;5012167;28;20314;-63
2022/07/08 11:41:17;;;;;;;0.90;0.90;;;23.60;99.90;;;;;;5012974;28;20679;-65
2022/07/08 11:43:44;;;;;;;1.30;1.20;;;23.50;99.90;;;;;;5012471;28;20201;-63
2022/07/08 11:46:19;;;;;;;1.30;1.20;;;23.50;99.90;;;;;;5012758;28;20232;-63
2022/07/08 11:48:47;;;;;;;2.03;1.15;;;23.50;99.90;;;;;;5011873;28;20879;-64
2022/07/08 11:51:15;;;;;;;1.40;1.08;;;23.50;99.90;;;;;;5012829;28;20603;-63
2022/07/08 11:53:44;;;;;;;1.23;1.10;;;23.40;99.90;;;;;;5007970;28;20241;-65
2022/07/08 11:56:11;;;;;;;0.93;0.93;;;23.30;99.90;;;;;;5009967;28;20231;-63
2022/07/08 11:58:37;;;;;;;0.93;0.93;;;23.40;99.90;;;;;;5008915;28;20205;-64
2022/07/08 12:01:05;;;;;;;1.10;1.00;;;23.60;99.90;;;;;;5011152;28;20284;-64
2022/07/08 12:03:34;;;;;;;1.50;1.10;;;23.80;99.90;;;;;;5010814;28;20197;-64
2022/07/08 12:06:03;;;;;;;0.90;0.90;;;23.60;99.90;;;;;;5004783;28;20260;-63
2022/07/08 12:08:32;;;;;;;1.70;1.20;;;23.60;99.90;;;;;;5002210;28;20575;-64
2022/07/08 12:11:13;;;;;;;1.20;1.10;;;23.60;99.90;;;;;;5010163;28;20201;-64
2022/07/08 12:13:44;;;;;;;1.13;1.02;;;23.60;99.90;;;;;;5003020;28;20283;-64
2022/07/08 12:16:26;;;;;;;1.20;1.10;;;23.80;99.90;;;;;;5009573;28;20336;-64
2022/07/08 12:18:53;;;;;;;0.88;0.88;;;23.80;99.90;;;;;;5006447;28;20738;-64
2022/07/08 12:21:21;;;;;;;1.33;1.23;;;24.10;99.90;;;;;;5005809;28;20201;-64
2022/07/08 12:23:56;;;;;;;1.60;1.00;;;24.20;99.90;;;;;;5006181;28;20224;-64
2022/07/08 12:26:24;;;;;;;1.00;1.00;;;23.90;99.90;;;;;;5008883;28;20228;-64
2022/07/08 12:28:51;;;;;;;1.20;1.00;;;23.80;99.90;;;;;;5014275;28;20228;-64
2022/07/08 12:31:37;;;;;;;1.02;1.02;;;23.70;99.90;;;;;;5012890;28;20203;-66
2022/07/08 12:34:05;;;;;;;1.17;1.10;;;23.90;99.90;;;;;;5004874;28;20210;-63
2022/07/08 12:36:34;;;;;;;1.10;1.05;;;24.00;99.90;;;;;;5009149;28;20221;-64
2022/07/08 12:39:12;;;;;;;0.90;0.90;;;24.20;99.90;;;;;;5010949;28;20235;-63
2022/07/08 12:41:39;;;;;;;1.20;1.10;;;24.20;99.90;;;;;;5007622;28;20231;-63
2022/07/08 12:44:30;;;;;;;0.90;0.90;;;24.20;99.90;;;;;;5013070;28;20703;-63
2022/07/08 12:46:57;;;;;;;1.33;1.23;;;24.10;99.90;;;;;;4998220;28;20237;-63
2022/07/08 12:49:24;;;;;;;1.10;1.00;;;24.20;99.90;;;;;;5011168;28;20269;-64
2022/07/08 12:51:52;;;;;;;0.95;0.95;;;24.10;99.90;;;;;;5004725;28;20205;-62